createdAt,value
2022-08-07T00:04:27.701Z,18.15
2022-08-07T00:14:31.518Z,17.93
2022-08-07T00:24:34.595Z,18.14
2022-08-07T00:34:38.177Z,18.02
2022-08-07T00:44:41.733Z,18.20
2022-08-07T00:54:43.947Z,17.64
2022-08-07T01:04:46.050Z,17.93
2022-08-07T01:14:47.968Z,17.71
2022-08-07T01:25:00.240Z,17.71
2022-08-07T01:35:06.001Z,17.62
2022-08-07T01:45:17.874Z,17.20
2022-08-07T01:55:45.569Z,17.23
2022-08-07T02:06:00.822Z,17.12
2022-08-07T02:16:11.828Z,17.08
2022-08-07T02:26:32.365Z,17.08
2022-08-07T02:36:39.525Z,16.87
2022-08-07T02:46:52.502Z,16.74
2022-08-07T02:56:59.933Z,16.57
2022-08-07T03:07:07.360Z,16.49
2022-08-07T03:17:22.445Z,16.30
2022-08-07T03:27:30.441Z,16.23
2022-08-07T03:37:53.882Z,16.05
2022-08-07T03:48:00.589Z,16.11
2022-08-07T03:58:33.470Z,15.77
2022-08-07T04:08:25.242Z,15.77
2022-08-07T04:18:57.491Z,15.72
2022-08-07T04:28:50.272Z,15.87
2022-08-07T04:38:53.364Z,15.61
2022-08-07T04:49:29.543Z,15.33
2022-08-07T05:00:11.844Z,15.60
2022-08-07T05:10:23.252Z,15.57
2022-08-07T05:20:33.755Z,15.88
2022-08-07T05:30:37.857Z,16.06
2022-08-07T05:40:50.749Z,16.23
2022-08-07T05:50:58.309Z,16.48
2022-08-07T06:01:01.853Z,16.80
2022-08-07T06:11:07.561Z,17.31
2022-08-07T06:22:14.544Z,19.27
2022-08-07T06:31:46.909Z,19.55
2022-08-07T06:42:04.605Z,19.96
2022-08-07T06:52:36.454Z,19.43
2022-08-07T07:02:54.314Z,18.75
2022-08-07T07:13:16.373Z,19.64
2022-08-07T07:24:08.689Z,19.64
2022-08-07T07:34:06.825Z,20.92
2022-08-07T07:44:21.669Z,19.89
2022-08-07T07:54:28.564Z,19.78
2022-08-07T08:04:32.185Z,21.10
2022-08-07T08:14:36.775Z,20.69
2022-08-07T08:25:09.514Z,20.98
2022-08-07T08:35:28.729Z,21.37
2022-08-07T08:46:00.643Z,21.85
2022-08-07T08:56:08.416Z,21.77
2022-08-07T09:06:21.785Z,22.31
2022-08-07T09:16:35.030Z,22.73
2022-08-07T09:26:57.183Z,23.44
2022-08-07T09:37:08.086Z,23.52
2022-08-07T09:47:56.080Z,23.96
2022-08-07T09:58:18.886Z,23.85
2022-08-07T10:08:45.249Z,24.14
2022-08-07T10:19:11.385Z,24.64
2022-08-07T10:30:12.943Z,24.95
2022-08-07T10:40:21.835Z,24.96
2022-08-07T10:50:44.826Z,25.24
2022-08-07T11:01:12.365Z,25.04
2022-08-07T11:11:51.634Z,25.42
2022-08-07T11:22:26.562Z,25.82
2022-08-07T11:32:47.555Z,25.54
2022-08-07T11:43:02.532Z,25.40
2022-08-07T11:53:35.231Z,25.94
2022-08-07T12:03:44.335Z,26.10
2022-08-07T12:14:01.248Z,26.97
2022-08-07T12:24:37.051Z,26.92
2022-08-07T12:34:36.211Z,27.39
2022-08-07T12:44:42.876Z,27.13
2022-08-07T12:55:16.522Z,27.37
2022-08-07T13:06:03.356Z,27.33
2022-08-07T13:16:21.686Z,26.81
2022-08-07T13:26:33.730Z,27.32
2022-08-07T13:36:52.645Z,27.11
2022-08-07T13:46:59.653Z,27.25
2022-08-07T13:57:04.886Z,27.49
2022-08-07T14:07:11.834Z,27.73
2022-08-07T14:18:13.127Z,27.10
2022-08-07T14:28:19.891Z,27.19
2022-08-07T14:38:07.008Z,27.48
2022-08-07T14:48:18.985Z,27.30
2022-08-07T14:58:25.608Z,27.29
2022-08-07T15:19:01.666Z,26.97
2022-08-07T15:39:30.125Z,27.07
2022-08-07T15:50:05.347Z,27.03
2022-08-07T16:00:09.258Z,26.97
2022-08-07T16:10:34.935Z,26.75
2022-08-07T16:22:02.277Z,26.87
2022-08-07T16:31:58.602Z,26.81
2022-08-07T16:42:37.125Z,26.79
2022-08-07T16:54:01.712Z,26.76
2022-08-07T17:04:12.295Z,26.56
2022-08-07T17:14:25.239Z,26.56
2022-08-07T17:24:29.760Z,26.43
2022-08-07T17:34:40.921Z,26.29
2022-08-07T17:45:15.133Z,26.13
2022-08-07T17:56:00.364Z,25.95
2022-08-07T18:06:16.745Z,25.83
2022-08-07T18:16:57.474Z,25.72
2022-08-07T18:27:48.878Z,25.61
2022-08-07T18:38:57.072Z,25.43
2022-08-07T18:50:30.571Z,25.38
2022-08-07T18:59:47.432Z,25.17
2022-08-07T19:09:56.406Z,25.06
2022-08-07T19:20:25.003Z,25.02
2022-08-07T19:30:56.672Z,24.89
2022-08-07T19:41:04.954Z,24.63
2022-08-07T19:51:19.351Z,24.88
2022-08-07T20:01:55.866Z,24.75
2022-08-07T20:12:22.530Z,24.44
2022-08-07T20:22:29.333Z,23.68
2022-08-07T20:32:40.427Z,23.53
2022-08-07T20:42:45.089Z,23.64
2022-08-07T20:52:53.215Z,23.21
2022-08-07T21:03:06.103Z,23.47
2022-08-07T21:13:19.358Z,23.38
2022-08-07T21:23:42.906Z,23.47
2022-08-07T21:34:26.634Z,23.30
2022-08-07T21:44:51.178Z,23.29
2022-08-07T21:55:10.943Z,23.16
2022-08-07T22:05:48.416Z,23.03
2022-08-07T22:16:42.655Z,22.71
2022-08-07T22:26:26.734Z,22.79
2022-08-07T22:36:52.623Z,22.49
2022-08-07T22:47:08.843Z,22.33
2022-08-07T22:57:50.852Z,22.18
2022-08-07T23:08:31.108Z,21.97
2022-08-07T23:19:13.711Z,21.96
2022-08-07T23:30:35.497Z,21.66
2022-08-07T23:40:21.991Z,21.58
2022-08-07T23:50:56.888Z,21.44
